Time;durP1;ratioP1;P1;durP2;ratioP2;P2;SDS_P1;SDS_P2;PMS_P1;PMS_P2;Temp;Humidity;BMP_temperature;BMP_pressure;BME280_temperature;BME280_humidity;BME280_pressure;Samples;Min_cycle;Max_cycle;Signal;HPM_P1;HPM_P2
2023/01/17 00:00:33;;;;;;;22.85;12.85;;;;;;;;;;5031577;28;20047;-80
2023/01/17 00:02:59;;;;;;;20.60;13.02;;;;;;;;;;5042920;28;20120;-79
2023/01/17 00:10:54;;;;;;;28.37;13.07;;;;;;;;;;5036752;28;20032;-80
2023/01/17 00:13:20;;;;;;;22.45;13.40;;;;;;;;;;5021568;28;20400;-80
2023/01/17 00:15:45;;;;;;;25.40;12.95;;;;;;;;;;5038257;28;20144;-79
2023/01/17 00:18:11;;;;;;;23.88;12.48;;;;;;;;;;5036361;28;20126;-79
2023/01/17 00:26:25;;;;;;;24.83;12.82;;;;;;;;;;5018266;28;20037;-78
2023/01/17 01:35:35;;;;;;;22.45;12.63;;;;;;;;;;5048822;28;20037;-80
2023/01/17 01:38:01;;;;;;;24.25;13.70;;;;;;;;;;5033938;28;20116;-80
2023/01/17 01:40:26;;;;;;;23.35;13.05;;;;;;;;;;5032857;28;20041;-79
2023/01/17 01:42:52;;;;;;;23.63;12.73;;;;;;;;;;5032309;28;20048;-80
2023/01/17 01:45:18;;;;;;;;;;;;;;;;;;5025030;28;20060;-79
2023/01/17 01:47:43;;;;;;;29.67;13.93;;;;;;;;;;5033817;28;19995;-79
2023/01/17 01:50:09;;;;;;;23.75;13.40;;;;;;;;;;5016752;28;20037;-80
2023/01/17 01:52:35;;;;;;;24.40;12.88;;;;;;;;;;5032292;28;20417;-80
2023/01/17 01:55:20;;;;;;;22.90;13.55;;;;;;;;;;5032720;28;20040;-80
2023/01/17 01:57:46;;;;;;;23.77;13.23;;;;;;;;;;5031089;28;20048;-80
2023/01/17 02:00:15;;;;;;;22.23;12.68;;;;;;;;;;5015760;28;20480;-80
2023/01/17 02:02:41;;;;;;;23.77;12.85;;;;;;;;;;5019123;28;20068;-80
2023/01/17 02:05:07;;;;;;;23.55;12.77;;;;;;;;;;5049922;28;20055;-79
2023/01/17 02:07:34;;;;;;;23.42;13.20;;;;;;;;;;5042890;28;20404;-79
2023/01/17 02:09:59;;;;;;;24.42;12.57;;;;;;;;;;5033516;28;20041;-79
2023/01/17 02:12:25;;;;;;;22.38;12.40;;;;;;;;;;5039960;28;20049;-79
2023/01/17 02:14:50;;;;;;;24.10;12.80;;;;;;;;;;5040801;28;20132;-79
2023/01/17 02:17:16;;;;;;;20.67;11.82;;;;;;;;;;5032067;28;20088;-79
2023/01/17 02:20:00;;;;;;;23.52;12.68;;;;;;;;;;5033136;28;20057;-79
2023/01/17 02:22:40;;;;;;;22.45;12.50;;;;;;;;;;5054482;28;20123;-79
2023/01/17 02:25:11;;;;;;;20.83;12.18;;;;;;;;;;5046808;28;20049;-79
2023/01/17 02:27:45;;;;;;;21.52;11.18;;;;;;;;;;5015374;28;20037;-79
2023/01/17 02:30:30;;;;;;;21.90;12.55;;;;;;;;;;5041780;28;20036;-79
2023/01/17 02:33:16;;;;;;;22.80;12.73;;;;;;;;;;5041797;28;20033;-79
2023/01/17 02:35:46;;;;;;;18.55;11.32;;;;;;;;;;5037858;28;20044;-79
2023/01/17 02:38:30;;;;;;;22.25;11.73;;;;;;;;;;5031405;28;20043;-81
2023/01/17 02:41:18;;;;;;;21.98;12.30;;;;;;;;;;5032124;28;20120;-80
2023/01/17 02:43:44;;;;;;;24.98;13.20;;;;;;;;;;5020468;28;20584;-80
2023/01/17 02:46:09;;;;;;;19.80;12.07;;;;;;;;;;5014173;28;20120;-80
2023/01/17 02:48:35;;;;;;;19.85;12.05;;;;;;;;;;5047358;28;20076;-80
2023/01/17 02:51:13;;;;;;;21.20;11.77;;;;;;;;;;5047750;28;20503;-80
2023/01/17 02:53:41;;;;;;;20.75;12.48;;;;;;;;;;5046977;28;20426;-79
2023/01/17 02:56:06;;;;;;;21.42;12.20;;;;;;;;;;5047933;28;20025;-80
2023/01/17 02:58:50;;;;;;;20.88;12.18;;;;;;;;;;5038208;28;20526;-80
2023/01/17 03:01:23;;;;;;;20.85;12.23;;;;;;;;;;5025820;28;20037;-80
2023/01/17 03:03:49;;;;;;;21.48;11.70;;;;;;;;;;5030794;28;20148;-80
2023/01/17 03:06:14;;;;;;;20.80;12.65;;;;;;;;;;5047159;28;20029;-80
2023/01/17 03:08:40;;;;;;;22.27;12.48;;;;;;;;;;5031338;28;20030;-80
2023/01/17 03:11:07;;;;;;;20.52;11.85;;;;;;;;;;5034044;28;20025;-79
2023/01/17 03:13:33;;;;;;;25.35;13.50;;;;;;;;;;5031623;28;20516;-80
2023/01/17 03:15:58;;;;;;;21.52;12.13;;;;;;;;;;5023647;28;20033;-80
2023/01/17 03:18:24;;;;;;;21.90;12.45;;;;;;;;;;5022062;28;20049;-80
2023/01/17 03:20:49;;;;;;;21.83;11.85;;;;;;;;;;5034715;28;20029;-80
2023/01/17 03:23:15;;;;;;;22.40;12.57;;;;;;;;;;5046262;28;20037;-81
2023/01/17 03:25:40;;;;;;;22.25;13.60;;;;;;;;;;5037590;28;20036;-81
2023/01/17 03:28:06;;;;;;;21.98;12.07;;;;;;;;;;5004935;28;20044;-81
2023/01/17 03:30:31;;;;;;;22.77;12.80;;;;;;;;;;5027779;28;20037;-80
2023/01/17 03:32:57;;;;;;;20.38;12.27;;;;;;;;;;5033432;28;20041;-80
2023/01/17 03:35:22;;;;;;;22.27;11.98;;;;;;;;;;5031714;28;20029;-80
2023/01/17 03:37:48;;;;;;;23.65;12.60;;;;;;;;;;5046789;28;20041;-80
2023/01/17 03:40:13;;;;;;;25.40;13.88;;;;;;;;;;5033463;28;20041;-80
2023/01/17 03:42:39;;;;;;;22.70;12.65;;;;;;;;;;5036553;28;20044;-81
2023/01/17 03:45:04;;;;;;;22.65;12.90;;;;;;;;;;5030048;28;20120;-80
2023/01/17 03:47:30;;;;;;;26.58;13.30;;;;;;;;;;5031918;28;20048;-81
2023/01/17 03:49:55;;;;;;;28.02;15.30;;;;;;;;;;5032397;28;20037;-80
2023/01/17 03:52:21;;;;;;;25.15;14.55;;;;;;;;;;5032947;28;20112;-79
2023/01/17 03:54:47;;;;;;;29.15;15.38;;;;;;;;;;5031046;28;20045;-79
2023/01/17 03:57:12;;;;;;;;;;;;;;;;;;5046831;28;20389;-79
2023/01/17 03:59:38;;;;;;;24.67;13.15;;;;;;;;;;5025828;28;19920;-80
2023/01/17 04:02:03;;;;;;;33.78;15.30;;;;;;;;;;5046866;28;20083;-79
2023/01/17 04:04:29;;;;;;;25.58;13.82;;;;;;;;;;5030862;28;20495;-79
2023/01/17 04:06:54;;;;;;;28.70;13.98;;;;;;;;;;5046282;28;20044;-80
2023/01/17 04:09:20;;;;;;;26.00;13.65;;;;;;;;;;5039022;28;20037;-81
2023/01/17 04:11:49;;;;;;;24.85;13.95;;;;;;;;;;5032454;28;20056;-80
2023/01/17 04:14:15;;;;;;;27.45;15.00;;;;;;;;;;5026981;28;20578;-80
2023/01/17 04:16:40;;;;;;;31.52;15.52;;;;;;;;;;5036905;28;20033;-80
2023/01/17 04:19:07;;;;;;;27.73;14.77;;;;;;;;;;5034276;28;20033;-81
2023/01/17 04:21:33;;;;;;;24.83;13.70;;;;;;;;;;5030676;28;20037;-81
2023/01/17 04:23:58;;;;;;;26.60;15.38;;;;;;;;;;5045938;28;20832;-81
2023/01/17 04:26:24;;;;;;;27.52;13.90;;;;;;;;;;5038706;28;20500;-80
2023/01/17 04:28:49;;;;;;;29.42;13.80;;;;;;;;;;5025809;28;20495;-80
2023/01/17 04:31:16;;;;;;;29.95;14.30;;;;;;;;;;5013699;28;20545;-81
2023/01/17 04:33:41;;;;;;;30.08;14.48;;;;;;;;;;5031510;28;20029;-80
2023/01/17 04:36:07;;;;;;;27.08;14.05;;;;;;;;;;5044136;28;20074;-80
2023/01/17 04:38:33;;;;;;;27.27;14.15;;;;;;;;;;5041286;28;20412;-80
2023/01/17 04:40:59;;;;;;;25.85;13.50;;;;;;;;;;5031974;28;20038;-81
2023/01/17 04:43:24;;;;;;;26.23;14.40;;;;;;;;;;5034837;28;20039;-79
2023/01/17 04:45:54;;;;;;;28.60;13.65;;;;;;;;;;5035120;28;20103;-79
2023/01/17 04:48:19;;;;;;;26.80;13.95;;;;;;;;;;5030505;28;20041;-81
2023/01/17 04:50:44;;;;;;;26.38;13.85;;;;;;;;;;5035546;28;20354;-81
2023/01/17 04:53:10;;;;;;;25.48;12.73;;;;;;;;;;5056395;28;20366;-80
2023/01/17 04:55:35;;;;;;;28.95;13.63;;;;;;;;;;5041659;28;20041;-80
2023/01/17 04:58:01;;;;;;;21.88;11.88;;;;;;;;;;5037948;28;20506;-81
2023/01/17 05:00:26;;;;;;;23.20;13.25;;;;;;;;;;5041575;28;20037;-82
2023/01/17 05:02:52;;;;;;;24.92;13.30;;;;;;;;;;5037807;28;20455;-81
2023/01/17 05:05:17;;;;;;;25.67;12.55;;;;;;;;;;5035500;28;20037;-83
2023/01/17 05:07:43;;;;;;;27.58;13.57;;;;;;;;;;5037257;28;20029;-80
2023/01/17 05:10:09;;;;;;;24.55;13.25;;;;;;;;;;5044493;28;20042;-81
2023/01/17 05:12:34;;;;;;;24.73;12.18;;;;;;;;;;5035003;28;20053;-81
2023/01/17 05:15:00;;;;;;;23.95;12.85;;;;;;;;;;5042214;28;20041;-82
2023/01/17 05:17:25;;;;;;;24.13;12.38;;;;;;;;;;5050360;28;20044;-81
2023/01/17 05:19:51;;;;;;;24.33;11.95;;;;;;;;;;5034412;28;20033;-82
2023/01/17 05:22:16;;;;;;;24.17;12.13;;;;;;;;;;5030998;28;20029;-83
2023/01/17 05:24:45;;;;;;;20.63;11.20;;;;;;;;;;5049505;28;20045;-81
2023/01/17 05:27:11;;;;;;;21.98;11.65;;;;;;;;;;5022335;28;20025;-83
2023/01/17 05:29:36;;;;;;;24.55;13.00;;;;;;;;;;5011808;28;20427;-82
2023/01/17 05:32:02;;;;;;;22.65;11.20;;;;;;;;;;5028616;28;20061;-83
2023/01/17 05:34:28;;;;;;;24.35;11.13;;;;;;;;;;5047787;28;20083;-83
2023/01/17 05:36:53;;;;;;;17.65;10.43;;;;;;;;;;5033425;28;20029;-82
2023/01/17 05:39:18;;;;;;;22.17;11.73;;;;;;;;;;5034009;28;20046;-83
2023/01/17 05:41:44;;;;;;;21.92;11.23;;;;;;;;;;5015260;28;20053;-82
2023/01/17 05:44:10;;;;;;;19.23;10.15;;;;;;;;;;5024535;28;20061;-82
2023/01/17 05:46:35;;;;;;;22.02;11.82;;;;;;;;;;5029846;28;20025;-81
2023/01/17 05:49:01;;;;;;;21.45;10.18;;;;;;;;;;5033502;28;20029;-82
2023/01/17 05:51:28;;;;;;;19.58;11.57;;;;;;;;;;5047776;28;20029;-81
2023/01/17 05:53:54;;;;;;;22.15;10.27;;;;;;;;;;5032268;28;20029;-83
2023/01/17 05:56:19;;;;;;;20.55;10.95;;;;;;;;;;5032422;28;20044;-81
2023/01/17 05:58:44;;;;;;;24.20;10.35;;;;;;;;;;5031691;28;20048;-82
2023/01/17 06:01:10;;;;;;;19.42;10.60;;;;;;;;;;5033056;28;20060;-82
2023/01/17 06:03:36;;;;;;;21.67;11.02;;;;;;;;;;5032014;28;20043;-82
2023/01/17 06:06:01;;;;;;;20.17;11.25;;;;;;;;;;5033041;28;20472;-82
2023/01/17 06:08:26;;;;;;;26.05;11.65;;;;;;;;;;5033025;28;20030;-81
2023/01/17 06:10:52;;;;;;;23.63;11.77;;;;;;;;;;5048672;28;20025;-81
2023/01/17 06:13:20;;;;;;;24.33;12.30;;;;;;;;;;5032483;28;20130;-82
2023/01/17 06:15:46;;;;;;;25.20;12.00;;;;;;;;;;5032547;28;20045;-82
2023/01/17 06:18:12;;;;;;;19.52;10.43;;;;;;;;;;5032365;28;20412;-81
2023/01/17 06:20:38;;;;;;;19.83;12.20;;;;;;;;;;5031618;28;20069;-83
2023/01/17 06:23:04;;;;;;;23.25;12.85;;;;;;;;;;5032891;28;20124;-83
2023/01/17 06:25:29;;;;;;;;;;;;;;;;;;5033065;28;20084;-82
2023/01/17 06:27:55;;;;;;;26.05;12.57;;;;;;;;;;5032475;28;19916;-82
2023/01/17 06:30:20;;;;;;;20.98;11.93;;;;;;;;;;5032535;28;20072;-81
2023/01/17 06:32:52;;;;;;;29.00;12.45;;;;;;;;;;5032235;28;20187;-81
2023/01/17 06:35:18;;;;;;;22.67;12.43;;;;;;;;;;5032750;28;20037;-81
2023/01/17 06:37:43;;;;;;;24.70;13.43;;;;;;;;;;5031977;28;20029;-82
2023/01/17 06:40:09;;;;;;;23.48;12.25;;;;;;;;;;5031771;28;20055;-83
2023/01/17 06:42:35;;;;;;;24.23;12.75;;;;;;;;;;5032044;28;20467;-81
2023/01/17 06:45:00;;;;;;;23.20;12.52;;;;;;;;;;5030211;28;20048;-81
2023/01/17 06:47:26;;;;;;;26.55;12.80;;;;;;;;;;5032525;28;20037;-81
2023/01/17 06:49:51;;;;;;;27.98;13.30;;;;;;;;;;5035536;28;20557;-81
2023/01/17 06:52:17;;;;;;;25.92;13.48;;;;;;;;;;5038771;28;20401;-81
2023/01/17 06:54:42;;;;;;;27.50;13.00;;;;;;;;;;5034569;28;20029;-82
2023/01/17 06:57:08;;;;;;;27.90;14.48;;;;;;;;;;5038632;28;20101;-82
2023/01/17 06:59:33;;;;;;;22.83;11.85;;;;;;;;;;5031558;28;20539;-82
2023/01/17 07:01:59;;;;;;;22.02;12.57;;;;;;;;;;5031575;28;20094;-83
2023/01/17 07:04:24;;;;;;;23.80;13.20;;;;;;;;;;5033020;28;20421;-81
2023/01/17 07:06:50;;;;;;;24.85;13.50;;;;;;;;;;5046217;28;20052;-81
2023/01/17 07:09:15;;;;;;;26.08;13.30;;;;;;;;;;5032074;28;20171;-81
2023/01/17 07:11:41;;;;;;;27.92;13.35;;;;;;;;;;5025926;28;20480;-83
2023/01/17 07:14:10;;;;;;;27.63;14.70;;;;;;;;;;5030432;28;20172;-81
2023/01/17 07:16:36;;;;;;;26.02;12.63;;;;;;;;;;5044738;28;20037;-81
2023/01/17 07:19:01;;;;;;;29.13;14.57;;;;;;;;;;5030022;28;20048;-81
2023/01/17 07:21:26;;;;;;;24.52;12.70;;;;;;;;;;5040976;28;20116;-81
2023/01/17 07:24:17;;;;;;;25.10;13.43;;;;;;;;;;5021728;28;20086;-81
2023/01/17 07:26:43;;;;;;;23.40;14.18;;;;;;;;;;5030465;28;20041;-81
2023/01/17 07:29:08;;;;;;;26.13;13.90;;;;;;;;;;5031396;28;20021;-82
2023/01/17 07:31:35;;;;;;;23.33;12.70;;;;;;;;;;5030240;28;20140;-83
2023/01/17 07:34:01;;;;;;;27.73;14.18;;;;;;;;;;5026090;28;20032;-82
2023/01/17 07:36:26;;;;;;;24.17;11.55;;;;;;;;;;5035224;28;20484;-80
2023/01/17 07:38:52;;;;;;;25.95;14.32;;;;;;;;;;5038387;28;20037;-83
2023/01/17 07:41:18;;;;;;;25.63;14.40;;;;;;;;;;5034666;28;20041;-82
2023/01/17 07:43:44;;;;;;;26.85;14.25;;;;;;;;;;5030201;28;20092;-81
2023/01/17 07:46:09;;;;;;;27.05;14.35;;;;;;;;;;5031455;28;20026;-82
2023/01/17 07:48:35;;;;;;;28.45;13.95;;;;;;;;;;5031455;28;20073;-82
2023/01/17 07:51:00;;;;;;;26.92;14.35;;;;;;;;;;5031736;28;20096;-84
2023/01/17 07:53:26;;;;;;;23.08;13.40;;;;;;;;;;5037253;28;20037;-82
2023/01/17 07:55:52;;;;;;;24.50;12.98;;;;;;;;;;5033481;28;20057;-82
2023/01/17 07:58:17;;;;;;;24.02;13.25;;;;;;;;;;5039251;28;20060;-82
2023/01/17 08:00:43;;;;;;;24.10;13.85;;;;;;;;;;5024615;28;20042;-82
2023/01/17 08:03:12;;;;;;;22.55;12.68;;;;;;;;;;5029348;28;20520;-82
2023/01/17 08:05:39;;;;;;;23.45;12.77;;;;;;;;;;5009619;28;20037;-83
2023/01/17 08:08:04;;;;;;;;;;;;;;;;;;5013320;28;20420;-81
2023/01/17 08:10:29;;;;;;;24.23;13.50;;;;;;;;;;5030891;28;19913;-82
2023/01/17 08:12:55;;;;;;;25.10;13.15;;;;;;;;;;5045940;28;20099;-81
2023/01/17 08:15:22;;;;;;;23.08;12.63;;;;;;;;;;5030602;28;20090;-83
2023/01/17 08:17:48;;;;;;;21.85;12.27;;;;;;;;;;5035511;28;20112;-83
2023/01/17 08:20:14;;;;;;;22.02;12.13;;;;;;;;;;5034247;28;20769;-82
2023/01/17 08:22:39;;;;;;;19.90;12.35;;;;;;;;;;5034289;28;20140;-83
2023/01/17 08:25:05;;;;;;;29.40;13.52;;;;;;;;;;5035655;28;20061;-82
2023/01/17 08:27:30;;;;;;;21.40;12.57;;;;;;;;;;5044206;28;20032;-82
2023/01/17 08:29:56;;;;;;;24.55;13.00;;;;;;;;;;5017305;28;20037;-82
2023/01/17 08:32:22;;;;;;;24.08;13.13;;;;;;;;;;5036331;28;20083;-82
2023/01/17 08:34:47;;;;;;;21.33;12.82;;;;;;;;;;5035389;28;20504;-82
2023/01/17 08:37:13;;;;;;;23.50;13.18;;;;;;;;;;5035251;28;20048;-82
2023/01/17 08:39:38;;;;;;;21.75;12.50;;;;;;;;;;5034035;28;20093;-83
2023/01/17 08:42:04;;;;;;;20.05;11.82;;;;;;;;;;5036314;28;20025;-83
2023/01/17 08:44:29;;;;;;;23.15;13.55;;;;;;;;;;5034367;28;20033;-83
2023/01/17 08:46:54;;;;;;;21.63;12.00;;;;;;;;;;5035954;28;20037;-82
2023/01/17 08:49:20;;;;;;;20.70;11.65;;;;;;;;;;5042237;28;20039;-82
2023/01/17 08:51:45;;;;;;;22.52;12.63;;;;;;;;;;5047195;28;20098;-84
2023/01/17 08:54:13;;;;;;;20.52;11.88;;;;;;;;;;5046259;28;20466;-82
2023/01/17 08:56:41;;;;;;;21.15;12.10;;;;;;;;;;5044264;28;20029;-82
2023/01/17 08:59:10;;;;;;;18.85;12.13;;;;;;;;;;5034368;28;20048;-83
2023/01/17 09:01:39;;;;;;;22.73;12.02;;;;;;;;;;5045413;28;20078;-82
2023/01/17 09:04:05;;;;;;;21.83;12.32;;;;;;;;;;5037219;28;20040;-82
2023/01/17 09:06:30;;;;;;;;;;;;;;;;;;5033081;28;20029;-83
2023/01/17 09:09:21;;;;;;;21.30;11.65;;;;;;;;;;5029527;28;19978;-81
2023/01/17 09:11:47;;;;;;;20.58;11.00;;;;;;;;;;5045714;28;20053;-83
2023/01/17 09:14:12;;;;;;;19.27;11.13;;;;;;;;;;5033624;28;20120;-82
2023/01/17 09:16:40;;;;;;;19.60;10.95;;;;;;;;;;5033591;28;20037;-82
2023/01/17 09:19:05;;;;;;;18.55;11.10;;;;;;;;;;5037587;28;20033;-83
2023/01/17 09:21:31;;;;;;;17.02;10.60;;;;;;;;;;5048632;28;20043;-83
2023/01/17 09:23:57;;;;;;;21.05;10.88;;;;;;;;;;5032087;28;20400;-83
2023/01/17 09:26:23;;;;;;;16.83;10.23;;;;;;;;;;5033118;28;20561;-82
2023/01/17 09:28:48;;;;;;;;;;;;;;;;;;5036150;28;20020;-81
2023/01/17 09:31:14;;;;;;;18.75;10.80;;;;;;;;;;5039707;28;19912;-82
2023/01/17 09:33:42;;;;;;;15.75;9.75;;;;;;;;;;5031313;28;20021;-81
2023/01/17 09:36:08;;;;;;;18.63;10.15;;;;;;;;;;5032851;28;20037;-81
2023/01/17 09:38:34;;;;;;;;;;;;;;;;;;5037207;28;20028;-82
2023/01/17 09:41:00;;;;;;;15.77;10.38;;;;;;;;;;5041016;28;19913;-83
2023/01/17 09:43:25;;;;;;;;;;;;;;;;;;5046708;28;20403;-83
2023/01/17 09:45:51;;;;;;;17.33;9.55;;;;;;;;;;5050913;28;19916;-83
2023/01/17 09:48:20;;;;;;;18.33;10.20;;;;;;;;;;5034558;28;20507;-82
2023/01/17 09:50:56;;;;;;;18.63;10.77;;;;;;;;;;5032991;28;20033;-83
2023/01/17 09:53:22;;;;;;;18.60;10.48;;;;;;;;;;5049187;28;20158;-82
2023/01/17 09:55:54;;;;;;;21.42;11.65;;;;;;;;;;5034687;28;20061;-82
2023/01/17 09:58:20;;;;;;;18.50;11.43;;;;;;;;;;5030212;28;20044;-82
2023/01/17 10:00:55;;;;;;;20.35;11.32;;;;;;;;;;5032224;28;20029;-82
2023/01/17 10:03:41;;;;;;;21.67;11.77;;;;;;;;;;5016074;28;20041;-83
2023/01/17 10:06:15;;;;;;;17.15;10.15;;;;;;;;;;5032301;28;20033;-83
2023/01/17 10:08:49;;;;;;;18.67;10.30;;;;;;;;;;5015331;28;20072;-83
2023/01/17 10:11:15;;;;;;;18.98;11.32;;;;;;;;;;5032705;28;20420;-82
2023/01/17 10:13:59;;;;;;;19.63;10.70;;;;;;;;;;5027550;28;20057;-81
2023/01/17 10:16:43;;;;;;;17.20;10.38;;;;;;;;;;5033489;28;20041;-82
2023/01/17 10:19:30;;;;;;;17.83;10.13;;;;;;;;;;5034166;28;20028;-82
2023/01/17 10:22:19;;;;;;;19.88;9.32;;;;;;;;;;5033976;28;20037;-82
2023/01/17 10:24:44;;;;;;;16.58;9.75;;;;;;;;;;5035768;28;20151;-82
2023/01/17 10:27:20;;;;;;;17.77;9.55;;;;;;;;;;5032426;28;20583;-81
2023/01/17 10:29:46;;;;;;;16.27;8.63;;;;;;;;;;5030857;28;20460;-81
2023/01/17 10:32:12;;;;;;;17.20;10.05;;;;;;;;;;5031424;28;20091;-83
2023/01/17 10:34:48;;;;;;;19.30;9.82;;;;;;;;;;5032107;28;20041;-82
2023/01/17 10:37:14;;;;;;;16.73;9.77;;;;;;;;;;5021929;28;20132;-82
2023/01/17 10:39:39;;;;;;;15.52;9.60;;;;;;;;;;5029757;28;20109;-82
2023/01/17 10:42:14;;;;;;;17.58;8.93;;;;;;;;;;5031114;28;20489;-83
2023/01/17 10:45:03;;;;;;;17.58;9.60;;;;;;;;;;5042121;28;20033;-83
2023/01/17 10:47:30;;;;;;;17.73;9.77;;;;;;;;;;5024829;28;20049;-83
2023/01/17 10:49:57;;;;;;;17.08;9.43;;;;;;;;;;5041127;28;20151;-82
2023/01/17 10:52:25;;;;;;;16.75;9.73;;;;;;;;;;5030201;28;20526;-82
2023/01/17 10:55:04;;;;;;;17.25;8.90;;;;;;;;;;5031901;28;20488;-82
2023/01/17 10:57:33;;;;;;;16.25;9.25;;;;;;;;;;5030178;28;20127;-82
2023/01/17 10:59:59;;;;;;;15.77;9.52;;;;;;;;;;5031835;28;20056;-83
2023/01/17 11:02:28;;;;;;;13.60;9.30;;;;;;;;;;5031217;28;20059;-81
2023/01/17 11:04:54;;;;;;;17.35;9.43;;;;;;;;;;5030709;28;20044;-82
2023/01/17 11:07:21;;;;;;;16.80;8.68;;;;;;;;;;5013751;28;20484;-83
2023/01/17 11:09:48;;;;;;;15.70;9.02;;;;;;;;;;5030412;28;20033;-82
2023/01/17 11:12:17;;;;;;;16.15;8.82;;;;;;;;;;5010709;28;20153;-84
2023/01/17 11:14:48;;;;;;;15.38;9.07;;;;;;;;;;5032008;28;20455;-82
2023/01/17 11:17:14;;;;;;;14.68;8.88;;;;;;;;;;5014682;28;20403;-82
2023/01/17 11:19:44;;;;;;;16.08;8.50;;;;;;;;;;5029604;28;20534;-82
2023/01/17 11:22:11;;;;;;;15.18;9.13;;;;;;;;;;5030118;28;20454;-83
2023/01/17 11:24:38;;;;;;;16.80;8.60;;;;;;;;;;5043331;28;20060;-83
2023/01/17 11:27:04;;;;;;;18.13;8.90;;;;;;;;;;5031610;28;20575;-82
2023/01/17 11:29:29;;;;;;;;;;;;;;;;;;5030724;28;20542;-81
2023/01/17 11:31:55;;;;;;;16.63;9.07;;;;;;;;;;5033660;28;19917;-83
2023/01/17 11:34:24;;;;;;;18.48;9.27;;;;;;;;;;5037420;28;20075;-82
2023/01/17 11:37:06;;;;;;;17.02;9.00;;;;;;;;;;5032588;28;20083;-82
2023/01/17 11:39:32;;;;;;;16.48;9.30;;;;;;;;;;5034842;28;20041;-83
2023/01/17 11:41:57;;;;;;;18.35;9.25;;;;;;;;;;5040195;28;20031;-83
2023/01/17 11:44:24;;;;;;;16.58;9.10;;;;;;;;;;5039168;28;20045;-83
2023/01/17 11:47:10;;;;;;;15.68;8.95;;;;;;;;;;5031158;28;20087;-83
2023/01/17 11:49:35;;;;;;;16.50;9.27;;;;;;;;;;5019609;28;20037;-83
2023/01/17 11:52:06;;;;;;;14.45;8.68;;;;;;;;;;5029477;28;20026;-81
2023/01/17 11:54:37;;;;;;;15.75;9.45;;;;;;;;;;5029823;28;20033;-83
2023/01/17 11:57:03;;;;;;;20.42;10.55;;;;;;;;;;5040272;28;20033;-82
2023/01/17 11:59:33;;;;;;;14.70;9.10;;;;;;;;;;5012246;28;20083;-83
2023/01/17 12:02:17;;;;;;;19.75;10.00;;;;;;;;;;5007074;28;20051;-83
2023/01/17 12:04:54;;;;;;;17.85;9.38;;;;;;;;;;5030398;28;20495;-83
2023/01/17 12:07:38;;;;;;;16.98;10.07;;;;;;;;;;5029792;28;20033;-83
2023/01/17 12:10:07;;;;;;;17.23;10.30;;;;;;;;;;5023829;28;20033;-82
2023/01/17 12:15:33;;;;;;;17.38;9.70;;;;;;;;;;5025948;28;20038;-82
2023/01/17 12:18:14;;;;;;;14.82;9.05;;;;;;;;;;5030087;28;20038;-82
2023/01/17 12:20:43;;;;;;;18.27;10.27;;;;;;;;;;5029162;28;20123;-83
2023/01/17 12:23:12;;;;;;;19.20;9.90;;;;;;;;;;5029935;28;20045;-83
2023/01/17 12:25:43;;;;;;;16.58;9.65;;;;;;;;;;5030139;28;20576;-84
2023/01/17 12:28:20;;;;;;;14.57;8.73;;;;;;;;;;5041300;28;20493;-82
2023/01/17 12:30:45;;;;;;;;;;;;;;;;;;5020737;28;20554;-82
2023/01/17 12:33:32;;;;;;;15.63;9.55;;;;;;;;;;5030479;28;19909;-84
2023/01/17 12:35:59;;;;;;;16.98;10.05;;;;;;;;;;5022248;28;20045;-82
2023/01/17 12:38:34;;;;;;;17.52;8.77;;;;;;;;;;5038000;28;20484;-81
2023/01/17 12:41:26;;;;;;;15.45;9.38;;;;;;;;;;5036851;28;20092;-83
2023/01/17 12:43:58;;;;;;;16.25;8.93;;;;;;;;;;5029210;28;20045;-83
2023/01/17 12:46:25;;;;;;;13.63;9.38;;;;;;;;;;5013744;28;20049;-82
2023/01/17 12:48:55;;;;;;;16.80;8.77;;;;;;;;;;5029912;28;20108;-82
2023/01/17 12:51:26;;;;;;;15.90;9.85;;;;;;;;;;5029446;28;20114;-82
2023/01/17 12:54:00;;;;;;;17.17;8.77;;;;;;;;;;5029692;28;20095;-82
2023/01/17 12:56:36;;;;;;;14.07;8.82;;;;;;;;;;5029287;28;20059;-81
2023/01/17 12:59:12;;;;;;;16.25;8.82;;;;;;;;;;5009058;28;20566;-83
2023/01/17 13:01:41;;;;;;;16.25;9.35;;;;;;;;;;5014910;28;20045;-83
2023/01/17 13:04:15;;;;;;;13.77;7.95;;;;;;;;;;5033670;28;20056;-83
2023/01/17 13:06:44;;;;;;;16.30;8.75;;;;;;;;;;5016809;28;20044;-85
2023/01/17 13:09:09;;;;;;;13.25;8.13;;;;;;;;;;5033371;28;20017;-85
2023/01/17 13:11:35;;;;;;;13.60;8.55;;;;;;;;;;5032917;28;20037;-82
2023/01/17 13:14:00;;;;;;;12.65;8.65;;;;;;;;;;5034180;28;20029;-82
2023/01/17 13:16:31;;;;;;;11.65;7.30;;;;;;;;;;5033406;28;20041;-84
2023/01/17 13:18:57;;;;;;;12.88;8.05;;;;;;;;;;5031957;28;20112;-82
2023/01/17 13:21:29;;;;;;;13.10;8.27;;;;;;;;;;5034832;28;20136;-85
2023/01/17 13:23:58;;;;;;;11.82;7.90;;;;;;;;;;5032912;28;20381;-83
2023/01/17 13:26:43;;;;;;;12.43;8.25;;;;;;;;;;5033725;28;20029;-83
2023/01/17 13:29:27;;;;;;;12.43;8.07;;;;;;;;;;5034212;28;20034;-82
2023/01/17 13:32:09;;;;;;;13.75;7.95;;;;;;;;;;5033960;28;20512;-83
2023/01/17 13:34:44;;;;;;;13.30;8.18;;;;;;;;;;5011673;28;20032;-82
2023/01/17 13:37:31;;;;;;;14.20;8.25;;;;;;;;;;5034289;28;20033;-82
2023/01/17 13:40:20;;;;;;;12.32;8.25;;;;;;;;;;5032308;28;20040;-82
2023/01/17 13:42:56;;;;;;;14.32;8.38;;;;;;;;;;5028860;28;20045;-82
2023/01/17 13:45:22;;;;;;;11.73;8.03;;;;;;;;;;5032707;28;20496;-84
2023/01/17 13:47:48;;;;;;;10.55;7.18;;;;;;;;;;5033029;28;20116;-84
2023/01/17 13:50:32;;;;;;;10.82;7.40;;;;;;;;;;5032508;28;20069;-82
2023/01/17 13:52:59;;;;;;;10.93;7.43;;;;;;;;;;5043406;28;20033;-82
2023/01/17 13:55:42;;;;;;;12.77;7.82;;;;;;;;;;5033431;28;20029;-82
2023/01/17 13:58:25;;;;;;;11.35;7.45;;;;;;;;;;5030464;28;20144;-83
2023/01/17 14:00:51;;;;;;;13.15;7.93;;;;;;;;;;5014737;28;20030;-82
2023/01/17 14:03:30;;;;;;;10.77;7.07;;;;;;;;;;5039281;28;20498;-82
2023/01/17 14:05:55;;;;;;;13.73;7.80;;;;;;;;;;5031988;28;20068;-82
2023/01/17 14:08:21;;;;;;;11.35;7.13;;;;;;;;;;5032060;28;20045;-82
2023/01/17 14:10:46;;;;;;;12.68;7.80;;;;;;;;;;5042867;28;20132;-82
2023/01/17 14:13:27;;;;;;;9.95;6.75;;;;;;;;;;5032591;28;20053;-84
2023/01/17 14:15:53;;;;;;;10.43;6.88;;;;;;;;;;5030249;28;20103;-83
2023/01/17 14:18:29;;;;;;;12.02;6.78;;;;;;;;;;5026918;28;20033;-82
2023/01/17 14:21:05;;;;;;;11.90;7.47;;;;;;;;;;5020678;28;20496;-82
2023/01/17 14:23:45;;;;;;;14.70;7.50;;;;;;;;;;5032731;28;20056;-85
2023/01/17 14:26:22;;;;;;;12.02;7.38;;;;;;;;;;5023850;28;20037;-84
2023/01/17 14:28:47;;;;;;;12.75;7.35;;;;;;;;;;5041125;28;20463;-82
2023/01/17 14:31:13;;;;;;;12.40;7.68;;;;;;;;;;5029431;28;20037;-82
2023/01/17 14:33:39;;;;;;;13.18;7.53;;;;;;;;;;5025508;28;20037;-82
2023/01/17 14:36:05;;;;;;;12.07;7.30;;;;;;;;;;5039330;28;20377;-82
2023/01/17 14:38:31;;;;;;;12.38;8.40;;;;;;;;;;5032218;28;20124;-82
2023/01/17 14:41:05;;;;;;;13.63;8.15;;;;;;;;;;5032226;28;20361;-83
2023/01/17 14:43:31;;;;;;;12.15;7.43;;;;;;;;;;5029149;28;20033;-82
2023/01/17 14:46:15;;;;;;;15.65;8.38;;;;;;;;;;5007133;28;20041;-82
2023/01/17 14:48:40;;;;;;;13.40;8.43;;;;;;;;;;5038357;28;20037;-82
2023/01/17 14:51:13;;;;;;;12.30;8.38;;;;;;;;;;5034629;28;20499;-83
2023/01/17 14:53:38;;;;;;;15.35;9.10;;;;;;;;;;5027260;28;20033;-83
2023/01/17 14:56:11;;;;;;;17.40;9.90;;;;;;;;;;5033262;28;20824;-84
2023/01/17 14:58:38;;;;;;;15.65;9.10;;;;;;;;;;5039610;28;20420;-82
2023/01/17 15:01:03;;;;;;;15.85;9.38;;;;;;;;;;5033370;28;20029;-83
2023/01/17 15:03:29;;;;;;;18.52;10.20;;;;;;;;;;5037235;28;20029;-83
2023/01/17 15:05:55;;;;;;;16.02;9.25;;;;;;;;;;5030039;28;20033;-83
2023/01/17 15:08:21;;;;;;;18.60;10.23;;;;;;;;;;5025850;28;20124;-82
2023/01/17 15:10:57;;;;;;;17.30;10.95;;;;;;;;;;5032502;28;20099;-84
2023/01/17 15:13:33;;;;;;;18.65;11.07;;;;;;;;;;5031195;28;20060;-85
2023/01/17 15:16:05;;;;;;;17.17;10.60;;;;;;;;;;5031455;28;20103;-83
2023/01/17 15:18:34;;;;;;;18.98;12.13;;;;;;;;;;5026559;28;20540;-82
2023/01/17 15:21:01;;;;;;;18.90;12.70;;;;;;;;;;5023680;28;20036;-84
2023/01/17 15:23:37;;;;;;;20.00;12.38;;;;;;;;;;5011935;28;20443;-81
2023/01/17 15:26:03;;;;;;;20.13;11.95;;;;;;;;;;5029937;28;20439;-83
2023/01/17 15:28:29;;;;;;;20.38;12.68;;;;;;;;;;5024110;28;20029;-82
2023/01/17 15:31:02;;;;;;;20.52;12.75;;;;;;;;;;5014031;28;20029;-84
2023/01/17 15:33:29;;;;;;;21.58;13.10;;;;;;;;;;5042024;28;20043;-84
2023/01/17 15:35:58;;;;;;;21.52;14.07;;;;;;;;;;5031062;28;20032;-83
2023/01/17 15:38:25;;;;;;;20.73;11.45;;;;;;;;;;5044783;28;20551;-84
2023/01/17 15:40:50;;;;;;;23.60;13.82;;;;;;;;;;5033356;28;20040;-84
2023/01/17 15:43:19;;;;;;;19.60;12.68;;;;;;;;;;5031420;28;20120;-83
2023/01/17 15:45:57;;;;;;;19.20;11.57;;;;;;;;;;5036679;28;20029;-83
2023/01/17 15:48:43;;;;;;;20.35;12.27;;;;;;;;;;5035268;28;20044;-83
2023/01/17 15:51:10;;;;;;;26.05;14.15;;;;;;;;;;5030988;28;20024;-83
2023/01/17 15:53:35;;;;;;;;;;;;;;;;;;5033001;28;20098;-83
2023/01/17 15:56:16;;;;;;;23.88;14.70;;;;;;;;;;5033936;28;20023;-85